Time;durP1;ratioP1;P1;durP2;ratioP2;P2;SDS_P1;SDS_P2;PMS_P1;PMS_P2;Temp;Humidity;BMP_temperature;BMP_pressure;BME280_temperature;BME280_humidity;BME280_pressure;Samples;Min_cycle;Max_cycle;Signal;HPM_P1;HPM_P2
2022/11/05 00:10:35;;;;;;;0.93;0.40;;;6.30;99.90;;;;;;4897400;29;20060;-79
2022/11/05 00:18:30;;;;;;;1.10;0.60;;;6.10;99.90;;;;;;4897774;29;20055;-79
2022/11/05 00:20:56;;;;;;;0.55;0.40;;;6.00;99.90;;;;;;4897278;29;20071;-79
2022/11/05 00:26:08;;;;;;;0.70;0.50;;;5.80;99.90;;;;;;4896330;29;20079;-79
2022/11/05 00:28:35;;;;;;;0.60;0.50;;;6.00;99.90;;;;;;4897984;29;20083;-79
2022/11/05 00:31:05;;;;;;;1.00;0.70;;;5.70;99.90;;;;;;4898899;29;20332;-79
2022/11/05 00:33:31;;;;;;;1.13;0.55;;;5.60;99.90;;;;;;4881658;29;20091;-79
2022/11/05 00:35:57;;;;;;;1.33;0.65;;;5.80;99.90;;;;;;4896458;29;20127;-80
2022/11/05 00:38:23;;;;;;;2.67;0.73;;;6.00;99.90;;;;;;4896746;29;20057;-80
2022/11/05 00:40:49;;;;;;;0.73;0.70;;;5.90;99.90;;;;;;4897520;29;20052;-80
2022/11/05 00:45:59;;;;;;;0.98;0.80;;;5.90;99.90;;;;;;4897683;29;20054;-78
2022/11/05 00:51:09;;;;;;;1.00;0.60;;;6.00;99.90;;;;;;4897674;29;20055;-79
2022/11/05 00:53:35;;;;;;;2.08;0.70;;;5.70;99.90;;;;;;4896169;29;20053;-79
2022/11/05 00:56:01;;;;;;;0.70;0.60;;;6.00;99.90;;;;;;4892459;29;20457;-81
2022/11/05 00:58:28;;;;;;;0.60;0.50;;;5.70;99.90;;;;;;4896801;29;20100;-80
2022/11/05 01:00:59;;;;;;;1.77;0.60;;;5.80;99.90;;;;;;4896544;29;20048;-81
2022/11/05 01:03:30;;;;;;;0.98;0.70;;;5.60;99.90;;;;;;4896791;29;20079;-79
2022/11/05 01:06:04;;;;;;;0.60;0.50;;;5.80;99.90;;;;;;4897515;29;20096;-79
2022/11/05 01:08:29;;;;;;;0.75;0.57;;;5.80;99.90;;;;;;4913067;29;20041;-79
2022/11/05 01:10:57;;;;;;;0.90;0.70;;;5.50;99.90;;;;;;4895127;29;20513;-80
2022/11/05 01:13:26;;;;;;;0.80;0.50;;;5.50;99.90;;;;;;4896531;29;20087;-79
2022/11/05 01:15:52;;;;;;;0.80;0.60;;;5.80;99.90;;;;;;4896256;29;20092;-79
2022/11/05 01:18:19;;;;;;;1.27;0.60;;;5.50;99.90;;;;;;4896338;29;20123;-79
2022/11/05 01:20:45;;;;;;;0.50;0.32;;;5.90;99.90;;;;;;4895811;29;20139;-79
2022/11/05 01:23:11;;;;;;;0.40;0.30;;;5.90;99.90;;;;;;4893942;29;20045;-72
2022/11/05 01:25:37;;;;;;;0.52;0.50;;;5.50;99.90;;;;;;4880232;29;20401;-73
2022/11/05 01:28:03;;;;;;;0.40;0.40;;;5.50;99.90;;;;;;4895860;29;20041;-79
2022/11/05 01:30:29;;;;;;;;;;;5.60;99.90;;;;;;4893620;29;20048;-79
2022/11/05 01:32:55;;;;;;;0.38;0.30;;;5.90;99.90;;;;;;4893260;29;19942;-78
2022/11/05 01:35:20;;;;;;;0.50;0.40;;;6.00;99.90;;;;;;4896109;29;20048;-79
2022/11/05 01:37:47;;;;;;;0.40;0.40;;;5.80;99.90;;;;;;4895809;29;20393;-79
2022/11/05 01:40:15;;;;;;;0.50;0.38;;;5.50;99.90;;;;;;4895617;29;20613;-79
2022/11/05 01:42:42;;;;;;;0.40;0.40;;;5.50;99.90;;;;;;4894654;29;20055;-79
2022/11/05 01:45:13;;;;;;;0.60;0.43;;;5.80;99.90;;;;;;4895894;29;20044;-79
2022/11/05 01:47:49;;;;;;;1.13;0.50;;;5.80;99.90;;;;;;4895862;29;20044;-80
2022/11/05 01:50:23;;;;;;;0.40;0.40;;;5.80;99.90;;;;;;4895299;29;20152;-79
2022/11/05 01:52:53;;;;;;;0.40;0.40;;;5.80;99.90;;;;;;4895154;29;20044;-73
2022/11/05 01:55:23;;;;;;;0.73;0.40;;;5.40;99.90;;;;;;4895173;29;20080;-72
2022/11/05 01:57:51;;;;;;;0.50;0.50;;;5.50;99.90;;;;;;4894879;29;20127;-72
2022/11/05 02:00:17;;;;;;;0.57;0.30;;;5.80;99.90;;;;;;4879534;29;20044;-72
2022/11/05 02:02:43;;;;;;;0.85;0.40;;;5.60;99.90;;;;;;4894574;29;20465;-72
2022/11/05 02:05:11;;;;;;;0.50;0.40;;;5.80;99.90;;;;;;4894930;29;20036;-72
2022/11/05 02:07:37;;;;;;;0.77;0.40;;;5.40;99.90;;;;;;4894766;29;20412;-73
2022/11/05 02:10:03;;;;;;;1.25;0.57;;;5.30;99.90;;;;;;4894496;29;20048;-72
2022/11/05 02:12:29;;;;;;;0.52;0.50;;;5.40;99.90;;;;;;4893458;29;20148;-72
2022/11/05 02:14:56;;;;;;;1.30;0.65;;;5.40;99.90;;;;;;4893638;29;20509;-72
2022/11/05 02:17:21;;;;;;;;;;;5.30;99.90;;;;;;4863249;29;20052;-73
2022/11/05 02:20:05;;;;;;;0.77;0.60;;;5.70;99.90;;;;;;4895119;29;19923;-72
2022/11/05 02:22:49;;;;;;;0.70;0.45;;;5.70;99.90;;;;;;4896800;29;20062;-72
2022/11/05 02:25:30;;;;;;;0.77;0.70;;;5.70;99.90;;;;;;4898608;29;20061;-72
2022/11/05 02:28:24;;;;;;;0.50;0.40;;;5.40;99.90;;;;;;4898030;29;20060;-72
2022/11/05 02:30:52;;;;;;;1.38;0.50;;;5.30;99.90;;;;;;4899649;29;20050;-79
2022/11/05 02:33:18;;;;;;;0.65;0.50;;;5.40;99.90;;;;;;4909734;29;20035;-79
2022/11/05 02:36:10;;;;;;;1.50;0.50;;;5.40;99.90;;;;;;4881875;29;20025;-79
2022/11/05 02:39:02;;;;;;;0.30;0.28;;;5.70;99.90;;;;;;4892456;29;20060;-79
2022/11/05 02:41:37;;;;;;;0.50;0.50;;;5.30;99.90;;;;;;4898801;29;20076;-79
2022/11/05 02:44:52;;;;;;;0.30;0.30;;;5.30;99.90;;;;;;4898905;29;20500;-72
2022/11/05 02:47:54;;;;;;;0.28;0.13;;;5.80;99.90;;;;;;4870126;29;20115;-72
2022/11/05 02:50:33;;;;;;;0.20;0.20;;;5.80;99.90;;;;;;4879206;29;20132;-73
2022/11/05 02:53:15;;;;;;;0.35;0.30;;;5.30;99.90;;;;;;4863706;29;20084;-72
2022/11/05 02:55:59;;;;;;;0.40;0.30;;;5.70;99.90;;;;;;4879159;29;20049;-72
2022/11/05 02:58:29;;;;;;;0.50;0.20;;;5.50;99.90;;;;;;4887158;29;20048;-73
2022/11/05 03:00:56;;;;;;;0.70;0.40;;;5.30;99.90;;;;;;4897317;29;20049;-72
2022/11/05 03:03:25;;;;;;;0.43;0.20;;;5.30;99.90;;;;;;4898472;29;20084;-72
2022/11/05 03:06:28;;;;;;;0.10;0.10;;;5.70;99.90;;;;;;4883268;29;20104;-72
2022/11/05 03:09:12;;;;;;;0.90;0.20;;;5.40;99.90;;;;;;4881948;29;20131;-72
2022/11/05 03:12:06;;;;;;;0.75;0.20;;;5.30;99.90;;;;;;4897072;29;20096;-72
2022/11/05 03:14:50;;;;;;;0.65;0.30;;;5.80;99.90;;;;;;4913352;29;20112;-72
2022/11/05 03:17:34;;;;;;;0.20;0.20;;;5.80;99.90;;;;;;4882359;29;20049;-72
2022/11/05 03:20:14;;;;;;;0.40;0.30;;;5.30;99.90;;;;;;4898437;29;20048;-72
2022/11/05 03:23:09;;;;;;;0.30;0.20;;;5.80;99.90;;;;;;4898132;29;20036;-73
2022/11/05 03:26:16;;;;;;;0.45;0.15;;;5.20;99.90;;;;;;4892158;29;20497;-73
2022/11/05 03:28:46;;;;;;;0.20;0.10;;;5.50;99.90;;;;;;4863495;29;20052;-72
2022/11/05 03:31:14;;;;;;;0.98;0.25;;;5.20;99.90;;;;;;4897920;29;20077;-72
2022/11/05 03:33:43;;;;;;;0.30;0.30;;;5.10;99.90;;;;;;4897616;29;20092;-72
2022/11/05 03:36:40;;;;;;;0.20;0.20;;;5.60;99.90;;;;;;4897115;29;20061;-73
2022/11/05 03:39:11;;;;;;;1.00;0.30;;;5.20;99.90;;;;;;4873909;29;20123;-73
2022/11/05 03:41:42;;;;;;;0.22;0.20;;;5.20;99.90;;;;;;4877609;29;20121;-72
2022/11/05 03:44:09;;;;;;;0.20;0.20;;;5.40;99.90;;;;;;4897270;29;20048;-72
2022/11/05 03:46:44;;;;;;;1.00;0.43;;;5.50;99.90;;;;;;4898090;29;20442;-73
2022/11/05 03:49:14;;;;;;;0.68;0.47;;;5.90;99.90;;;;;;4896551;29;20453;-73
2022/11/05 03:52:09;;;;;;;0.65;0.40;;;5.90;99.90;;;;;;4897934;29;20057;-72
2022/11/05 03:54:38;;;;;;;2.03;0.60;;;6.10;99.90;;;;;;4862070;29;20057;-79
2022/11/05 03:57:25;;;;;;;0.73;0.50;;;6.00;99.90;;;;;;4895060;29;20048;-79
2022/11/05 03:59:51;;;;;;;1.15;0.60;;;6.30;99.90;;;;;;4880717;29;20714;-79
2022/11/05 04:02:22;;;;;;;1.10;0.60;;;6.40;99.90;;;;;;4897603;29;20135;-80
2022/11/05 04:04:50;;;;;;;0.85;0.60;;;6.50;99.90;;;;;;4896698;29;20477;-79
2022/11/05 04:17:05;;;;;;;0.60;0.50;;;6.40;99.90;;;;;;4896259;29;20534;-80
2022/11/05 04:18:16;;;;;;;1.42;0.65;;;6.40;99.90;;;;;;4886610;29;20060;-79
2022/11/05 04:26:10;;;;;;;1.42;0.98;;;6.30;99.90;;;;;;4896792;29;20052;-79
2022/11/05 04:31:20;;;;;;;1.63;0.90;;;6.90;99.90;;;;;;4897179;29;20067;-79
2022/11/05 04:33:46;;;;;;;1.95;1.10;;;6.50;99.90;;;;;;4913539;29;20052;-79
2022/11/05 04:36:11;;;;;;;1.55;0.98;;;6.80;99.90;;;;;;4882680;29;20040;-79
2022/11/05 04:38:37;;;;;;;1.20;0.75;;;6.50;99.90;;;;;;4900555;29;20496;-79
2022/11/05 04:41:16;;;;;;;1.05;0.63;;;6.50;99.90;;;;;;4916263;29;20424;-81
2022/11/05 04:43:42;;;;;;;0.47;0.47;;;6.50;99.90;;;;;;4881326;29;20048;-79
2022/11/05 04:46:08;;;;;;;1.38;0.75;;;6.50;99.90;;;;;;4893901;29;20045;-80
2022/11/05 04:48:34;;;;;;;2.60;0.70;;;6.50;99.90;;;;;;4892568;29;20059;-79
2022/11/05 04:51:00;;;;;;;1.40;0.73;;;6.30;99.90;;;;;;4884711;29;20044;-79
2022/11/05 04:53:26;;;;;;;0.95;0.70;;;6.80;99.90;;;;;;4884708;29;20036;-80
2022/11/05 04:55:52;;;;;;;1.10;0.70;;;6.80;99.90;;;;;;4900452;29;20484;-79
2022/11/05 04:58:18;;;;;;;1.52;0.80;;;6.80;99.90;;;;;;4914934;29;20377;-79
2022/11/05 05:00:44;;;;;;;1.70;0.90;;;6.70;99.90;;;;;;4915745;29;20073;-79
2022/11/05 05:03:09;;;;;;;1.23;0.82;;;6.40;99.90;;;;;;4916580;29;20047;-79
2022/11/05 05:05:35;;;;;;;2.20;1.40;;;6.70;99.90;;;;;;4915265;29;20104;-79
2022/11/05 05:08:02;;;;;;;1.27;1.00;;;6.10;99.90;;;;;;4886640;29;20075;-79
2022/11/05 05:10:28;;;;;;;1.50;1.10;;;6.10;99.90;;;;;;4899397;29;20058;-79
2022/11/05 05:12:54;;;;;;;0.98;0.80;;;6.10;99.90;;;;;;4899293;29;20048;-79
2022/11/05 05:15:20;;;;;;;2.47;1.05;;;6.50;99.90;;;;;;4899079;29;20433;-79
2022/11/05 05:17:52;;;;;;;0.88;0.80;;;6.60;99.90;;;;;;4898873;29;20036;-79
2022/11/05 05:23:03;;;;;;;1.33;1.02;;;5.90;99.90;;;;;;4897519;29;20114;-79
2022/11/05 05:25:29;;;;;;;1.08;0.75;;;6.50;99.90;;;;;;4883230;29;20072;-72
2022/11/05 05:27:56;;;;;;;1.42;0.93;;;6.50;99.90;;;;;;4879270;29;20425;-72
2022/11/05 05:30:22;;;;;;;1.52;1.17;;;6.20;99.90;;;;;;4880087;29;20059;-73
2022/11/05 05:32:48;;;;;;;1.30;1.17;;;5.90;99.90;;;;;;4895989;29;20048;-72
2022/11/05 05:35:14;;;;;;;1.35;1.00;;;6.10;99.90;;;;;;4882082;29;20493;-72
2022/11/05 05:37:39;;;;;;;3.05;1.30;;;6.10;99.90;;;;;;4913577;29;20131;-73
2022/11/05 05:40:06;;;;;;;1.50;1.20;;;5.90;99.90;;;;;;4898486;29;20365;-72
2022/11/05 05:42:31;;;;;;;2.15;1.20;;;6.50;99.90;;;;;;4898407;29;20139;-72
2022/11/05 05:44:57;;;;;;;2.13;1.45;;;5.80;99.90;;;;;;4898214;29;20163;-72
2022/11/05 05:47:23;;;;;;;3.30;1.50;;;5.90;99.90;;;;;;4897696;29;20496;-73
2022/11/05 05:49:48;;;;;;;1.60;1.30;;;5.80;99.90;;;;;;4882427;29;20052;-73
2022/11/05 05:52:14;;;;;;;1.88;1.20;;;5.90;99.90;;;;;;4897877;29;20119;-72
2022/11/05 05:54:40;;;;;;;1.80;1.42;;;6.40;99.90;;;;;;4897408;29;20131;-73
2022/11/05 05:57:05;;;;;;;1.98;1.45;;;6.30;99.90;;;;;;4882355;29;20048;-72
2022/11/05 05:59:31;;;;;;;1.50;1.40;;;5.70;99.90;;;;;;4897722;29;20047;-73
2022/11/05 06:01:57;;;;;;;1.60;1.23;;;6.00;99.90;;;;;;4914294;29;20503;-72
2022/11/05 06:04:22;;;;;;;1.30;1.10;;;6.10;99.90;;;;;;4898375;29;20671;-73
2022/11/05 06:06:48;;;;;;;1.50;1.17;;;5.70;99.90;;;;;;4883211;29;20078;-72
2022/11/05 06:09:14;;;;;;;1.50;1.00;;;5.80;99.90;;;;;;4897530;29;20044;-72
2022/11/05 06:11:40;;;;;;;1.73;1.23;;;6.20;99.90;;;;;;4898122;29;20099;-72
2022/11/05 06:14:09;;;;;;;1.90;1.40;;;6.00;99.90;;;;;;4898439;29;20136;-73
2022/11/05 06:16:35;;;;;;;2.42;1.30;;;6.30;99.90;;;;;;4898196;29;20044;-72
2022/11/05 06:19:01;;;;;;;2.47;1.80;;;5.70;99.90;;;;;;4882410;29;20091;-73
2022/11/05 06:21:27;;;;;;;;;;;6.10;99.90;;;;;;4897089;29;20052;-71
2022/11/05 06:23:53;;;;;;;2.40;1.52;;;6.20;99.90;;;;;;4894960;29;20414;-73
2022/11/05 06:26:18;;;;;;;2.17;1.50;;;5.80;99.90;;;;;;4880937;29;20107;-81
2022/11/05 06:28:45;;;;;;;1.52;1.30;;;5.80;99.90;;;;;;4885596;29;20051;-74
2022/11/05 06:31:12;;;;;;;3.08;1.20;;;6.10;99.90;;;;;;4923278;29;20459;-73
2022/11/05 06:33:38;;;;;;;1.88;1.38;;;6.10;99.90;;;;;;4892587;29;20067;-73
2022/11/05 06:36:05;;;;;;;;;;;5.60;99.90;;;;;;4903538;29;20044;-74
2022/11/05 06:38:32;;;;;;;2.00;1.50;;;5.40;99.90;;;;;;4887460;29;19941;-73
2022/11/05 06:40:58;;;;;;;1.50;1.13;;;5.40;99.90;;;;;;4923958;29;20052;-74
2022/11/05 06:43:25;;;;;;;1.42;1.10;;;5.50;99.90;;;;;;4886811;29;20572;-74
2022/11/05 06:45:50;;;;;;;;;;;5.30;99.90;;;;;;4895201;29;20036;-73
2022/11/05 06:48:16;;;;;;;2.28;1.17;;;5.90;99.90;;;;;;4910926;29;19926;-74
2022/11/05 06:50:45;;;;;;;2.05;0.80;;;5.90;99.90;;;;;;4880882;29;20043;-74
2022/11/05 06:53:12;;;;;;;1.25;1.00;;;5.90;99.90;;;;;;4908583;29;20047;-73
2022/11/05 06:55:38;;;;;;;1.23;0.80;;;5.20;99.90;;;;;;4880703;29;20053;-73
2022/11/05 06:58:04;;;;;;;1.17;0.80;;;5.70;99.90;;;;;;4894914;29;20052;-73
2022/11/05 07:00:29;;;;;;;1.10;0.82;;;5.20;99.90;;;;;;4908359;29;20044;-79
2022/11/05 07:03:02;;;;;;;0.80;0.70;;;5.20;99.90;;;;;;4912578;29;20043;-74
2022/11/05 07:05:28;;;;;;;0.60;0.60;;;5.10;99.90;;;;;;4878772;29;20052;-73
2022/11/05 07:07:54;;;;;;;0.88;0.60;;;5.50;99.90;;;;;;4882326;29;20139;-73
2022/11/05 07:10:19;;;;;;;0.70;0.70;;;5.10;99.90;;;;;;4885597;29;20614;-75
2022/11/05 07:12:45;;;;;;;0.73;0.45;;;5.30;99.90;;;;;;4886070;29;20455;-72
2022/11/05 07:15:11;;;;;;;0.50;0.50;;;5.10;99.90;;;;;;4900884;29;20044;-80
2022/11/05 07:17:38;;;;;;;0.65;0.60;;;5.70;99.90;;;;;;4913393;29;20417;-79
2022/11/05 07:20:05;;;;;;;0.50;0.50;;;5.40;99.90;;;;;;4896748;29;20044;-80
2022/11/05 07:22:32;;;;;;;0.50;0.50;;;5.70;99.90;;;;;;4873045;29;20041;-78
2022/11/05 07:24:58;;;;;;;0.38;0.38;;;5.30;99.90;;;;;;4881774;29;20403;-80
2022/11/05 07:27:23;;;;;;;0.60;0.40;;;5.10;99.90;;;;;;4918595;29;20131;-79
2022/11/05 07:29:49;;;;;;;0.60;0.50;;;5.80;99.90;;;;;;4884369;29;20078;-78
2022/11/05 07:32:15;;;;;;;0.55;0.50;;;5.20;99.90;;;;;;4902380;29;20556;-79
2022/11/05 07:34:40;;;;;;;0.50;0.50;;;5.90;99.90;;;;;;4899770;29;20048;-80
2022/11/05 07:37:06;;;;;;;0.70;0.70;;;5.30;99.90;;;;;;4926014;29;20287;-78
2022/11/05 07:39:32;;;;;;;0.80;0.80;;;5.40;99.90;;;;;;4897692;29;20063;-78
2022/11/05 07:41:57;;;;;;;1.17;1.00;;;5.40;99.90;;;;;;4897599;29;20101;-79
2022/11/05 07:44:23;;;;;;;1.20;1.00;;;5.80;99.90;;;;;;4885506;29;20129;-79
2022/11/05 07:46:49;;;;;;;1.60;1.00;;;5.50;99.90;;;;;;4914413;29;20387;-79
2022/11/05 07:49:16;;;;;;;;;;;5.70;99.90;;;;;;4886243;29;20456;-78
2022/11/05 07:51:41;;;;;;;1.77;1.40;;;5.60;99.90;;;;;;4881264;29;19919;-78
2022/11/05 07:54:07;;;;;;;1.88;1.50;;;5.60;99.90;;;;;;4897413;29;20531;-78
2022/11/05 07:56:33;;;;;;;2.28;1.50;;;6.30;99.90;;;;;;4914946;29;20412;-79
2022/11/05 07:58:58;;;;;;;1.95;1.40;;;6.00;99.90;;;;;;4899538;29;20074;-79
2022/11/05 08:01:24;;;;;;;2.20;1.60;;;6.40;99.90;;;;;;4910923;29;20040;-79
2022/11/05 08:03:50;;;;;;;2.25;1.50;;;6.10;99.90;;;;;;4899907;29;20516;-80
2022/11/05 08:06:16;;;;;;;1.75;1.50;;;6.00;99.90;;;;;;4916139;29;20079;-80
2022/11/05 08:08:41;;;;;;;2.53;2.10;;;6.40;99.90;;;;;;4915614;29;20055;-80
2022/11/05 08:11:09;;;;;;;2.00;1.55;;;6.20;99.90;;;;;;4900108;29;20139;-79
2022/11/05 08:13:35;;;;;;;3.78;2.40;;;7.00;99.90;;;;;;4905600;29;20107;-78
2022/11/05 08:16:02;;;;;;;;;;;6.70;99.90;;;;;;4900961;29;20480;-79
2022/11/05 08:18:32;;;;;;;2.90;2.10;;;6.40;99.90;;;;;;4916229;29;20596;-80
2022/11/05 08:21:00;;;;;;;4.72;2.80;;;6.90;99.90;;;;;;4868019;29;20124;-80
2022/11/05 08:23:27;;;;;;;3.35;2.30;;;7.30;99.90;;;;;;4884633;29;20104;-80
2022/11/05 08:25:55;;;;;;;2.33;2.00;;;6.70;99.90;;;;;;4901714;29;20043;-78
2022/11/05 08:28:22;;;;;;;2.30;1.92;;;6.80;99.90;;;;;;4900360;29;20127;-78
2022/11/05 08:30:51;;;;;;;;;;;6.90;99.90;;;;;;4917953;29;20036;-80
2022/11/05 08:33:19;;;;;;;1.85;1.40;;;7.00;99.90;;;;;;4885909;29;19927;-79
2022/11/05 08:35:45;;;;;;;1.95;1.65;;;7.00;99.90;;;;;;4893912;29;20055;-79
2022/11/05 08:38:16;;;;;;;1.90;1.33;;;7.20;99.90;;;;;;4883413;29;20065;-79
2022/11/05 08:40:43;;;;;;;3.60;1.83;;;7.50;99.90;;;;;;4905263;29;20094;-81
2022/11/05 08:43:11;;;;;;;5.32;2.63;;;7.90;99.90;;;;;;4899749;29;20044;-80
2022/11/05 08:45:37;;;;;;;2.85;2.25;;;8.10;99.90;;;;;;4897760;29;20500;-79
2022/11/05 08:48:04;;;;;;;;;;;7.70;99.90;;;;;;4915705;29;20468;-79
2022/11/05 08:50:30;;;;;;;3.72;2.70;;;7.90;99.90;;;;;;4898259;29;19946;-78
2022/11/05 08:52:56;;;;;;;4.13;2.50;;;8.60;99.90;;;;;;4884249;29;20032;-78
2022/11/05 08:55:22;;;;;;;5.00;2.95;;;8.60;99.90;;;;;;4915974;29;20507;-78
2022/11/05 08:57:57;;;;;;;4.60;2.70;;;8.40;99.90;;;;;;4898795;29;20040;-79
2022/11/05 09:00:24;;;;;;;3.72;2.40;;;8.50;99.90;;;;;;4911945;29;20476;-78
2022/11/05 09:02:50;;;;;;;3.00;1.90;;;8.70;99.90;;;;;;4900180;29;20048;-78
2022/11/05 09:05:16;;;;;;;3.15;1.90;;;9.20;99.90;;;;;;4900166;29;20063;-79
2022/11/05 09:07:42;;;;;;;4.65;2.45;;;8.90;99.90;;;;;;4898945;29;20056;-79
2022/11/05 09:10:08;;;;;;;3.92;2.30;;;9.10;99.90;;;;;;4898659;29;20052;-79
2022/11/05 09:12:34;;;;;;;5.53;2.47;;;9.20;99.90;;;;;;4914401;29;20058;-77
2022/11/05 09:14:59;;;;;;;4.90;2.67;;;9.70;99.90;;;;;;4899412;29;20412;-78
2022/11/05 09:17:25;;;;;;;2.83;2.00;;;9.90;99.90;;;;;;4899194;29;20040;-79
2022/11/05 09:19:51;;;;;;;3.72;2.22;;;9.60;99.90;;;;;;4883136;29;20051;-78
2022/11/05 09:22:16;;;;;;;3.10;1.80;;;9.60;99.90;;;;;;4913795;29;20061;-78
2022/11/05 09:24:42;;;;;;;2.72;1.80;;;9.90;99.90;;;;;;4899566;29;20108;-80
2022/11/05 09:27:09;;;;;;;5.13;2.03;;;10.10;99.90;;;;;;4898036;29;20048;-77
2022/11/05 09:29:35;;;;;;;3.65;1.90;;;10.00;99.90;;;;;;4899050;29;20420;-79
2022/11/05 09:32:02;;;;;;;3.75;1.85;;;10.30;99.90;;;;;;4898757;29;20044;-79
2022/11/05 09:34:28;;;;;;;3.22;2.00;;;10.10;99.90;;;;;;4898008;29;20048;-78
2022/11/05 09:36:56;;;;;;;3.35;2.22;;;10.20;99.90;;;;;;4913855;29;20389;-78
2022/11/05 09:39:22;;;;;;;4.55;1.92;;;10.20;99.90;;;;;;4913523;29;20060;-78
2022/11/05 09:41:50;;;;;;;2.55;1.60;;;10.50;99.90;;;;;;4898702;29;20516;-77
2022/11/05 09:44:36;;;;;;;4.97;1.95;;;10.30;99.90;;;;;;4915799;29;20090;-79
2022/11/05 09:47:06;;;;;;;4.13;2.00;;;10.40;99.90;;;;;;4913637;29;20079;-78
2022/11/05 09:49:48;;;;;;;4.47;1.98;;;10.40;99.90;;;;;;4897379;29;20392;-78
2022/11/05 09:52:25;;;;;;;3.22;2.10;;;10.50;99.90;;;;;;4869729;29;20044;-78
2022/11/05 09:54:52;;;;;;;;;;;10.60;99.90;;;;;;4898419;29;20056;-79
2022/11/05 09:57:51;;;;;;;3.70;2.20;;;10.40;99.90;;;;;;4898691;29;19919;-78
2022/11/05 10:00:17;;;;;;;1.85;1.50;;;10.50;99.90;;;;;;4895564;29;20107;-78
2022/11/05 10:03:02;;;;;;;1.63;1.30;;;10.50;99.90;;;;;;4896369;29;20040;-78
2022/11/05 10:05:28;;;;;;;1.58;1.10;;;10.50;99.90;;;;;;4898618;29;20052;-78
2022/11/05 10:08:04;;;;;;;2.85;1.60;;;10.70;99.90;;;;;;4898374;29;20492;-78
2022/11/05 10:11:15;;;;;;;3.38;1.58;;;10.70;99.90;;;;;;4898125;29;20511;-78
2022/11/05 10:13:46;;;;;;;3.75;1.90;;;10.80;99.90;;;;;;4877242;29;20056;-78
2022/11/05 10:16:26;;;;;;;4.25;2.15;;;11.20;99.90;;;;;;4898025;29;20407;-78
2022/11/05 10:19:20;;;;;;;2.83;1.60;;;11.20;99.90;;;;;;4897352;29;20044;-80
2022/11/05 10:21:47;;;;;;;3.55;1.58;;;11.40;99.90;;;;;;4893881;29;20056;-79
2022/11/05 10:24:13;;;;;;;;;;;11.50;99.90;;;;;;4898866;29;20048;-78
2022/11/05 10:26:39;;;;;;;2.85;1.70;;;11.50;99.90;;;;;;4882452;29;19923;-79
2022/11/05 10:29:05;;;;;;;4.03;1.80;;;11.50;99.90;;;;;;4897936;29;20514;-80
2022/11/05 10:31:34;;;;;;;1.95;1.30;;;11.60;99.90;;;;;;4895551;29;20109;-79
2022/11/05 10:34:03;;;;;;;5.18;1.63;;;11.70;99.90;;;;;;4894686;29;20048;-79
2022/11/05 10:36:33;;;;;;;2.75;1.58;;;11.80;99.90;;;;;;4880226;29;20127;-78
2022/11/05 10:39:10;;;;;;;2.97;1.60;;;11.70;99.90;;;;;;4897446;29;20067;-79
2022/11/05 10:42:08;;;;;;;3.00;1.73;;;11.60;99.90;;;;;;4882368;29;20389;-79
2022/11/05 10:44:36;;;;;;;4.72;1.60;;;11.70;99.90;;;;;;4901075;29;20068;-79
2022/11/05 10:47:05;;;;;;;2.28;1.45;;;11.80;99.90;;;;;;4900309;29;20056;-78
2022/11/05 10:49:40;;;;;;;4.50;1.40;;;12.00;99.90;;;;;;4901425;29;20044;-78
2022/11/05 10:52:23;;;;;;;4.07;1.65;;;12.20;99.90;;;;;;4917231;29;20087;-78
2022/11/05 10:54:53;;;;;;;3.63;1.83;;;12.40;99.90;;;;;;4917767;29;20548;-79
2022/11/05 10:57:37;;;;;;;2.42;1.27;;;12.60;99.90;;;;;;4884630;29;20048;-79
2022/11/05 11:00:17;;;;;;;2.78;1.23;;;13.00;99.90;;;;;;4902084;29;20484;-80
2022/11/05 11:02:59;;;;;;;1.50;1.08;;;13.20;99.90;;;;;;4900619;29;20036;-78
2022/11/05 11:05:29;;;;;;;2.83;1.30;;;13.30;99.90;;;;;;4901660;29;20155;-78
2022/11/05 11:08:03;;;;;;;2.65;1.27;;;13.40;99.90;;;;;;4900681;29;20048;-78
2022/11/05 11:10:33;;;;;;;2.72;1.38;;;13.50;99.90;;;;;;4884388;29;20052;-78
2022/11/05 11:12:59;;;;;;;3.17;1.40;;;13.80;99.90;;;;;;4901974;29;20052;-77
2022/11/05 11:15:35;;;;;;;5.30;1.40;;;13.80;99.90;;;;;;4882184;29;20585;-78
2022/11/05 11:18:24;;;;;;;3.15;1.25;;;13.70;99.90;;;;;;4895973;29;20044;-79
2022/11/05 11:20:49;;;;;;;4.07;1.50;;;13.50;99.90;;;;;;4885612;29;20139;-79
2022/11/05 11:23:16;;;;;;;2.40;1.30;;;13.60;99.90;;;;;;4900791;29;20123;-78
2022/11/05 11:25:45;;;;;;;3.17;1.40;;;13.70;99.90;;;;;;4900326;29;20107;-79
2022/11/05 11:28:45;;;;;;;3.65;1.30;;;13.90;99.90;;;;;;4916239;29;20083;-79
2022/11/05 11:31:16;;;;;;;2.13;1.10;;;14.10;99.90;;;;;;4904888;29;20076;-79
2022/11/05 11:33:45;;;;;;;3.22;1.23;;;14.20;99.90;;;;;;4900974;29;20044;-80
2022/11/05 11:36:11;;;;;;;2.65;1.08;;;14.30;99.90;;;;;;4885105;29;20081;-79
2022/11/05 11:38:38;;;;;;;3.05;1.02;;;14.40;99.90;;;;;;4900146;29;20067;-79
2022/11/05 11:41:09;;;;;;;2.03;1.15;;;14.40;99.90;;;;;;4885131;29;20326;-79
2022/11/05 11:43:38;;;;;;;3.25;1.15;;;14.30;99.90;;;;;;4916444;29;20052;-78
2022/11/05 11:46:16;;;;;;;4.22;1.50;;;14.50;99.90;;;;;;4900309;29;20050;-78
2022/11/05 11:48:46;;;;;;;2.90;1.20;;;14.60;99.90;;;;;;4899457;29;20075;-79
2022/11/05 11:51:39;;;;;;;4.38;1.42;;;14.20;99.90;;;;;;4899271;29;20044;-79
2022/11/05 11:54:16;;;;;;;4.15;1.20;;;14.10;99.90;;;;;;4891617;29;20491;-78
2022/11/05 11:56:47;;;;;;;2.42;1.10;;;13.70;99.90;;;;;;4885214;29;20554;-79
2022/11/05 11:59:28;;;;;;;3.80;1.20;;;13.40;99.90;;;;;;4899986;29;20040;-79
2022/11/05 12:02:32;;;;;;;1.85;1.20;;;13.10;99.90;;;;;;4900899;29;20051;-79
2022/11/05 12:05:04;;;;;;;3.45;1.10;;;12.90;99.90;;;;;;4915492;29;20051;-78
2022/11/05 12:07:51;;;;;;;1.88;1.00;;;12.80;99.90;;;;;;4916034;29;20055;-79
2022/11/05 12:10:39;;;;;;;3.17;1.10;;;12.70;99.90;;;;;;4900352;29;20091;-78
2022/11/05 12:13:17;;;;;;;1.83;1.00;;;12.50;99.90;;;;;;4883527;29;20059;-80
2022/11/05 12:15:55;;;;;;;2.65;1.10;;;12.40;99.90;;;;;;4915704;29;20067;-79
2022/11/05 12:18:53;;;;;;;2.22;0.88;;;12.30;99.90;;;;;;4899894;29;20079;-78
2022/11/05 12:21:49;;;;;;;2.55;1.00;;;12.20;99.90;;;;;;4899331;29;20051;-79
2022/11/05 12:24:52;;;;;;;1.80;0.93;;;12.00;99.90;;;;;;4898437;29;20063;-78
2022/11/05 12:27:24;;;;;;;1.88;0.80;;;11.90;99.90;;;;;;4900749;29;20051;-79
2022/11/05 12:29:58;;;;;;;2.45;1.00;;;11.90;99.90;;;;;;4899749;29;20111;-79
2022/11/05 12:32:51;;;;;;;2.45;0.90;;;11.80;99.90;;;;;;4916884;29;20095;-80
2022/11/05 12:35:38;;;;;;;2.70;0.82;;;11.80;99.90;;;;;;4896387;29;20048;-79
2022/11/05 12:38:25;;;;;;;1.95;0.70;;;11.80;99.90;;;;;;4896960;29;20460;-79
2022/11/05 12:41:09;;;;;;;1.63;0.63;;;11.70;99.90;;;;;;4887521;29;20492;-79
2022/11/05 12:43:38;;;;;;;1.20;0.60;;;11.70;99.90;;;;;;4899444;29;20052;-79
2022/11/05 12:46:18;;;;;;;1.02;0.50;;;11.60;99.90;;;;;;4899534;29;20498;-79
2022/11/05 12:49:32;;;;;;;1.73;0.60;;;11.60;99.90;;;;;;4899815;29;20127;-79
2022/11/05 12:52:00;;;;;;;1.52;0.60;;;11.50;99.90;;;;;;4850352;29;20115;-78
2022/11/05 12:54:42;;;;;;;1.90;0.65;;;11.60;99.90;;;;;;4901551;29;20075;-79
2022/11/05 12:57:12;;;;;;;1.35;0.52;;;11.60;99.90;;;;;;4900290;29;20114;-78
2022/11/05 12:59:40;;;;;;;1.58;0.50;;;11.60;99.90;;;;;;4899335;29;20048;-79
2022/11/05 13:02:35;;;;;;;1.42;0.60;;;11.50;99.90;;;;;;4898754;29;20048;-79
2022/11/05 13:05:20;;;;;;;1.92;0.68;;;11.40;99.90;;;;;;4874048;29;20067;-79
2022/11/05 13:08:02;;;;;;;0.80;0.40;;;11.20;99.90;;;;;;4899296;29;20067;-79
2022/11/05 13:10:50;;;;;;;0.95;0.50;;;11.10;99.90;;;;;;4898992;29;20063;-72
2022/11/05 13:13:34;;;;;;;3.33;0.57;;;10.80;99.90;;;;;;4899210;29;20086;-71
2022/11/05 13:16:29;;;;;;;0.68;0.40;;;10.60;99.90;;;;;;4897562;29;20175;-72
2022/11/05 13:19:01;;;;;;;0.65;0.40;;;10.60;99.90;;;;;;4882574;29;20060;-72
2022/11/05 13:21:28;;;;;;;0.90;0.40;;;10.50;99.90;;;;;;4897753;29;20047;-72
2022/11/05 13:24:10;;;;;;;0.82;0.50;;;10.60;99.90;;;;;;4898280;29;20127;-72
2022/11/05 13:27:24;;;;;;;1.77;0.50;;;10.60;99.90;;;;;;4884272;29;20044;-72
2022/11/05 13:29:54;;;;;;;0.93;0.57;;;10.60;99.90;;;;;;4840877;29;20063;-72
2022/11/05 13:32:37;;;;;;;0.75;0.40;;;10.70;99.90;;;;;;4891486;29;20096;-72
2022/11/05 13:35:12;;;;;;;0.98;0.55;;;10.60;99.90;;;;;;4898836;29;20048;-72
2022/11/05 13:40:46;;;;;;;0.73;0.40;;;10.70;99.90;;;;;;4896746;29;20155;-72
2022/11/05 13:43:30;;;;;;;0.63;0.30;;;10.80;99.90;;;;;;4898845;29;20135;-72
2022/11/05 13:46:16;;;;;;;0.43;0.40;;;10.80;99.90;;;;;;4914110;29;20052;-72
2022/11/05 13:48:54;;;;;;;0.28;0.20;;;10.90;99.90;;;;;;4915777;29;20048;-73
2022/11/05 13:51:47;;;;;;;1.17;0.40;;;11.00;99.90;;;;;;4898431;29;20051;-80
2022/11/05 13:54:27;;;;;;;0.70;0.32;;;10.90;99.90;;;;;;4899194;29;20051;-79
2022/11/05 13:57:25;;;;;;;0.40;0.30;;;11.00;99.90;;;;;;4883701;29;20112;-78
2022/11/05 14:00:11;;;;;;;0.82;0.50;;;10.90;99.90;;;;;;4898969;29;20077;-79
2022/11/05 14:02:44;;;;;;;2.85;1.00;;;10.90;99.90;;;;;;4898437;29;20044;-79
2022/11/05 14:05:27;;;;;;;1.13;0.80;;;10.90;99.90;;;;;;4897363;29;20048;-79
2022/11/05 14:07:55;;;;;;;1.25;0.70;;;11.00;99.90;;;;;;4898435;29;20412;-80